Time;durP1;ratioP1;P1;durP2;ratioP2;P2;SDS_P1;SDS_P2;PMS_P1;PMS_P2;Temp;Humidity;BMP_temperature;BMP_pressure;BME280_temperature;BME280_humidity;BME280_pressure;Samples;Min_cycle;Max_cycle;Signal;HPM_P1;HPM_P2
2023/12/24 00:00:37;;;;;;;2.95;1.80;;;;;;;11.68;92.21;96560.47;5151676;27;20105;-74
2023/12/24 00:03:03;;;;;;;6.22;1.70;;;;;;;11.71;90.58;96570.09;5115810;27;20029;-73
2023/12/24 00:05:29;;;;;;;3.35;1.80;;;;;;;11.75;90.31;96568.88;5132173;27;20023;-73
2023/12/24 00:07:55;;;;;;;3.80;1.80;;;;;;;11.72;90.86;96571.81;5124502;27;20037;-73
2023/12/24 00:10:20;;;;;;;2.53;1.48;;;;;;;11.72;89.73;96575.31;5133096;27;20037;-73
2023/12/24 00:12:46;;;;;;;2.67;1.95;;;;;;;11.73;90.63;96573.50;5132976;27;20022;-73
2023/12/24 00:15:12;;;;;;;4.53;2.10;;;;;;;11.66;91.75;96567.75;5151396;27;20018;-73
2023/12/24 00:17:37;;;;;;;3.67;1.48;;;;;;;11.67;91.11;96582.00;5115956;27;20027;-73
2023/12/24 00:20:03;;;;;;;7.07;2.00;;;;;;;11.69;92.08;96582.75;5151496;27;20023;-73
2023/12/24 00:22:29;;;;;;;3.65;1.67;;;;;;;11.70;91.38;96582.66;5132736;27;20015;-73
2023/12/24 00:24:55;;;;;;;5.30;1.60;;;;;;;11.69;90.57;96582.75;5111965;28;20026;-72
2023/12/24 00:27:20;;;;;;;2.95;1.38;;;;;;;11.71;91.68;96588.88;5123448;28;20025;-73
2023/12/24 00:29:46;;;;;;;2.53;1.83;;;;;;;11.68;91.30;96592.63;5144526;27;20021;-73
2023/12/24 00:32:12;;;;;;;2.47;1.50;;;;;;;11.62;91.86;96598.47;5115557;27;20026;-73
2023/12/24 00:34:37;;;;;;;1.45;1.10;;;;;;;11.61;91.64;96606.63;5132823;27;20420;-73
2023/12/24 00:37:03;;;;;;;3.75;1.60;;;;;;;11.65;92.79;96616.13;5136714;27;20026;-74
2023/12/24 00:39:28;;;;;;;2.58;1.30;;;;;;;11.60;90.60;96610.25;5136950;27;20023;-73
2023/12/24 00:41:54;;;;;;;5.13;1.90;;;;;;;11.61;92.35;96623.53;5136465;27;20018;-74
2023/12/24 00:44:19;;;;;;;2.20;1.50;;;;;;;11.63;92.35;96631.47;5136623;27;20042;-74
2023/12/24 00:46:45;;;;;;;2.90;1.45;;;;;;;11.61;91.60;96623.53;5154771;27;20030;-73
2023/12/24 00:49:11;;;;;;;2.33;1.40;;;;;;;11.60;92.25;96626.31;5122932;27;20030;-73
2023/12/24 00:51:43;;;;;;;3.60;1.75;;;;;;;11.64;91.65;96643.88;5132694;27;20460;-73
2023/12/24 00:54:11;;;;;;;3.10;1.40;;;;;;;11.66;91.36;96647.28;5146901;27;20395;-74
2023/12/24 00:56:37;;;;;;;2.47;1.40;;;;;;;11.62;91.27;96640.47;5136421;27;20087;-73
2023/12/24 00:59:03;;;;;;;5.68;2.38;;;;;;;11.50;93.82;96636.09;5135914;27;20018;-74
2023/12/24 01:01:28;;;;;;;4.88;2.40;;;;;;;11.50;93.41;96649.50;5154912;27;20462;-74
2023/12/24 01:03:54;;;;;;;3.05;2.03;;;;;;;11.55;92.07;96660.69;5142935;27;20053;-74
2023/12/24 01:06:19;;;;;;;2.75;1.90;;;;;;;11.50;91.98;96658.38;5112230;27;20042;-74
2023/12/24 01:08:45;;;;;;;3.33;2.13;;;;;;;11.56;92.23;96684.69;5109541;27;20037;-74
2023/12/24 01:11:12;;;;;;;4.88;1.83;;;;;;;11.61;91.46;96678.94;5135276;27;20402;-74
2023/12/24 01:13:40;;;;;;;3.03;1.83;;;;;;;11.61;91.95;96684.28;5154422;27;20046;-74
2023/12/24 01:16:06;;;;;;;6.53;1.85;;;;;;;11.64;92.78;96682.22;5154215;27;20035;-74
2023/12/24 01:18:32;;;;;;;2.10;1.60;;;;;;;11.55;93.67;96699.03;5136099;27;20126;-73
2023/12/24 01:20:58;;;;;;;2.33;1.58;;;;;;;11.53;93.32;96678.69;5154540;27;20023;-73
2023/12/24 01:23:23;;;;;;;2.03;1.50;;;;;;;11.61;92.24;96698.53;5136173;27;20035;-74
2023/12/24 01:25:50;;;;;;;2.72;1.67;;;;;;;11.52;94.60;96691.25;5154543;27;20094;-74
2023/12/24 01:28:16;;;;;;;5.22;2.63;;;;;;;11.44;98.51;96702.53;5135572;27;20049;-74
2023/12/24 01:30:41;;;;;;;7.07;2.80;;;;;;;11.24;100.00;96700.59;5135606;27;20465;-74
2023/12/24 01:33:08;;;;;;;7.00;3.47;;;;;;;11.18;100.00;96706.44;5153954;27;20034;-74
2023/12/24 01:35:34;;;;;;;4.30;2.40;;;;;;;11.15;100.00;96714.69;5135579;27;20026;-74
2023/12/24 01:37:59;;;;;;;5.13;2.10;;;;;;;11.09;100.00;96722.34;5154147;27;20101;-73
2023/12/24 01:40:25;;;;;;;5.30;2.35;;;;;;;11.03;100.00;96722.81;5154156;27;20462;-74
2023/12/24 01:42:51;;;;;;;4.10;2.42;;;;;;;10.93;100.00;96727.16;5154111;27;20026;-74
2023/12/24 01:45:16;;;;;;;4.72;2.63;;;;;;;10.89;100.00;96743.44;5135463;27;20031;-74
2023/12/24 01:47:42;;;;;;;5.28;2.60;;;;;;;10.82;100.00;96741.38;5134528;27;20034;-74
2023/12/24 01:50:08;;;;;;;4.85;2.65;;;;;;;10.82;100.00;96738.69;5117928;27;20471;-74
2023/12/24 01:52:34;;;;;;;6.90;3.75;;;;;;;10.72;100.00;96740.34;5135759;27;20162;-74
2023/12/24 01:54:59;;;;;;;6.00;2.50;;;;;;;10.72;100.00;96740.34;5135494;27;20027;-74
2023/12/24 01:57:25;;;;;;;4.18;2.60;;;;;;;10.64;100.00;96740.09;5135107;27;20106;-73
2023/12/24 01:59:51;;;;;;;5.28;2.42;;;;;;;10.59;100.00;96736.88;5154130;27;20034;-73
2023/12/24 02:02:18;;;;;;;5.07;2.38;;;;;;;10.63;100.00;96746.38;5153549;27;20470;-73
2023/12/24 02:04:44;;;;;;;4.50;2.30;;;;;;;10.56;100.00;96747.81;5135351;27;20454;-73
2023/12/24 02:07:10;;;;;;;7.35;2.13;;;;;;;10.53;100.00;96750.72;5134703;27;20066;-73
2023/12/24 02:09:35;;;;;;;5.22;2.78;;;;;;;10.46;100.00;96747.63;5134816;27;20030;-73
2023/12/24 02:12:01;;;;;;;8.60;3.95;;;;;;;10.44;100.00;96757.59;5134861;27;20113;-73
2023/12/24 02:14:27;;;;;;;12.57;6.22;;;;;;;10.43;100.00;96758.56;5153322;27;20453;-73
2023/12/24 02:16:55;;;;;;;13.77;5.80;;;;;;;10.35;100.00;96771.66;5153431;27;20102;-73
2023/12/24 02:19:21;;;;;;;11.30;4.80;;;;;;;10.34;100.00;96761.91;5130250;27;20564;-73
2023/12/24 02:21:46;;;;;;;11.85;3.95;;;;;;;10.38;100.00;96775.91;5118186;27;20027;-73
2023/12/24 02:24:13;;;;;;;8.32;4.55;;;;;;;10.39;100.00;96764.25;5153121;27;20114;-72
2023/12/24 02:27:01;;;;;;;20.90;8.60;;;;;;;10.44;100.00;96773.63;5134655;27;20023;-73
2023/12/24 02:29:48;;;;;;;11.93;4.85;;;;;;;10.40;100.00;96766.81;5152069;27;20039;-74
2023/12/24 02:32:15;;;;;;;9.65;4.13;;;;;;;10.38;100.00;96759.88;5152478;27;20117;-73
2023/12/24 02:34:42;;;;;;;20.92;7.68;;;;;;;10.33;100.00;96761.09;5152913;27;20023;-72
2023/12/24 02:37:08;;;;;;;12.75;5.25;;;;;;;10.33;100.00;96757.56;5146008;27;20034;-73
2023/12/24 02:39:38;;;;;;;7.53;3.63;;;;;;;10.29;100.00;96764.06;5124644;27;20027;-73
2023/12/24 02:42:05;;;;;;;7.75;3.42;;;;;;;10.22;100.00;96765.47;5117196;27;20059;-73
2023/12/24 02:44:31;;;;;;;7.55;3.30;;;;;;;10.16;100.00;96781.97;5152809;27;20023;-73
2023/12/24 02:46:56;;;;;;;7.75;3.20;;;;;;;10.09;100.00;96799.38;5117323;27;20025;-73
2023/12/24 02:49:22;;;;;;;6.03;3.45;;;;;;;9.95;100.00;96781.66;5134602;27;20038;-73
2023/12/24 02:51:47;;;;;;;13.70;3.35;;;;;;;9.82;100.00;96791.50;5134029;27;20102;-74
2023/12/24 02:54:13;;;;;;;5.72;3.08;;;;;;;9.81;100.00;96797.84;5134161;27;20486;-73
2023/12/24 02:56:39;;;;;;;7.70;3.53;;;;;;;9.69;100.00;96812.88;5133967;27;20058;-73
2023/12/24 02:59:04;;;;;;;6.13;3.60;;;;;;;9.59;100.00;96809.16;5134346;27;20511;-73
2023/12/24 03:01:30;;;;;;;11.27;3.40;;;;;;;9.48;100.00;96802.84;5134128;27;20022;-72
2023/12/24 03:03:56;;;;;;;7.30;3.33;;;;;;;9.53;100.00;96827.44;5116955;27;20030;-72
2023/12/24 03:06:22;;;;;;;6.63;3.42;;;;;;;9.42;100.00;96820.16;5113312;27;20046;-72
2023/12/24 03:08:48;;;;;;;5.47;3.10;;;;;;;9.45;100.00;96829.75;5120543;27;20023;-73
2023/12/24 03:11:13;;;;;;;5.10;2.67;;;;;;;9.42;100.00;96835.31;5152445;27;20018;-73
2023/12/24 03:13:39;;;;;;;6.38;2.35;;;;;;;9.42;100.00;96830.81;5152471;27;20486;-73
2023/12/24 03:16:05;;;;;;;5.57;2.33;;;;;;;9.44;100.00;96833.41;5152692;27;20018;-73
2023/12/24 03:18:30;;;;;;;5.72;2.55;;;;;;;9.41;100.00;96846.97;5133925;27;20027;-73
2023/12/24 03:20:57;;;;;;;9.25;3.85;;;;;;;9.34;100.00;96838.50;5133899;27;20015;-73
2023/12/24 03:23:22;;;;;;;344.70;123.85;;;;;;;9.35;100.00;96852.72;5133938;27;20470;-73
2023/12/24 03:25:48;;;;;;;19.13;9.20;;;;;;;9.34;100.00;96861.66;5133571;27;20029;-73
2023/12/24 03:28:13;;;;;;;9.35;3.85;;;;;;;9.30;100.00;96868.16;5133760;27;20031;-73
2023/12/24 03:30:39;;;;;;;6.20;3.50;;;;;;;9.34;100.00;96859.00;5152385;27;20026;-73
2023/12/24 03:33:05;;;;;;;10.43;3.45;;;;;;;9.33;100.00;96862.63;5134030;27;20052;-73
2023/12/24 03:35:31;;;;;;;8.52;3.75;;;;;;;9.37;100.00;96865.00;5133730;27;20135;-73
2023/12/24 03:37:56;;;;;;;7.40;3.67;;;;;;;9.42;100.00;96862.00;5133486;27;20023;-73
2023/12/24 03:40:22;;;;;;;5.50;3.00;;;;;;;9.40;100.00;96867.44;5116498;27;20027;-73
2023/12/24 03:42:47;;;;;;;7.55;3.47;;;;;;;9.42;100.00;96878.00;5152004;27;20023;-74
2023/12/24 03:45:13;;;;;;;5.28;3.17;;;;;;;9.50;100.00;96881.03;5133597;27;20042;-73
2023/12/24 03:47:38;;;;;;;6.07;3.47;;;;;;;9.51;100.00;96893.41;5152002;27;20474;-73
2023/12/24 03:50:05;;;;;;;8.18;3.60;;;;;;;9.47;100.00;96897.25;5133569;27;20033;-73
2023/12/24 03:52:31;;;;;;;7.93;3.10;;;;;;;9.43;100.00;96903.75;5133506;27;20027;-73
2023/12/24 03:54:57;;;;;;;4.95;2.53;;;;;;;9.40;100.00;96906.63;5133201;27;20030;-73
2023/12/24 03:57:23;;;;;;;4.55;2.63;;;;;;;9.41;100.00;96916.34;5133754;27;20027;-73
2023/12/24 03:59:48;;;;;;;6.88;2.90;;;;;;;9.36;100.00;96899.78;5133337;27;20038;-73
2023/12/24 04:02:14;;;;;;;8.82;3.72;;;;;;;9.33;100.00;96916.00;5128479;28;20474;-73
2023/12/24 04:04:47;;;;;;;5.55;3.22;;;;;;;9.34;100.00;96909.72;5131053;28;20491;-73
2023/12/24 04:07:15;;;;;;;8.48;3.60;;;;;;;9.34;100.00;96912.38;5111498;28;20043;-73
2023/12/24 04:09:41;;;;;;;13.57;5.65;;;;;;;9.20;100.00;96931.97;5131049;27;20027;-73
2023/12/24 04:12:08;;;;;;;10.65;4.18;;;;;;;8.97;100.00;96925.50;5124994;27;20482;-73
2023/12/24 04:14:37;;;;;;;7.25;4.13;;;;;;;8.94;100.00;96932.84;5135332;27;20103;-73
2023/12/24 04:17:02;;;;;;;5.47;3.28;;;;;;;8.87;100.00;96931.50;5116540;27;20033;-73
2023/12/24 04:19:28;;;;;;;23.98;9.10;;;;;;;8.90;100.00;96945.50;5116704;27;20086;-74
2023/12/24 04:21:53;;;;;;;10.02;5.05;;;;;;;8.96;100.00;96955.78;5134835;27;20098;-73
2023/12/24 04:24:19;;;;;;;14.73;7.85;;;;;;;8.95;100.00;96948.72;5099659;27;20027;-73
2023/12/24 04:26:45;;;;;;;13.45;7.35;;;;;;;8.95;100.00;96953.22;5116354;27;20023;-73
2023/12/24 04:29:10;;;;;;;8.98;5.35;;;;;;;8.90;100.00;96964.19;5134868;27;20072;-73
2023/12/24 04:31:39;;;;;;;6.88;3.30;;;;;;;8.83;100.00;96957.53;5127516;27;20066;-73
2023/12/24 04:34:06;;;;;;;5.78;3.22;;;;;;;8.91;100.00;96955.25;5096194;27;20027;-73
2023/12/24 04:36:33;;;;;;;7.10;3.33;;;;;;;8.94;100.00;96960.38;5094043;27;20050;-73
2023/12/24 04:38:59;;;;;;;9.02;4.43;;;;;;;8.95;100.00;96972.72;5116238;27;20101;-74
2023/12/24 04:41:28;;;;;;;5.45;3.35;;;;;;;8.94;100.00;96979.03;5099330;27;20167;-74
2023/12/24 04:43:54;;;;;;;7.65;3.70;;;;;;;8.99;100.00;96976.06;5116621;27;20071;-74
2023/12/24 04:46:19;;;;;;;7.97;3.80;;;;;;;8.99;100.00;96984.91;5115862;27;20019;-74
2023/12/24 04:48:45;;;;;;;6.22;2.55;;;;;;;9.02;100.00;96975.84;5099097;27;20030;-73
2023/12/24 04:51:11;;;;;;;12.57;6.55;;;;;;;9.10;100.00;96986.91;5134040;27;20114;-74
2023/12/24 04:53:37;;;;;;;13.60;6.82;;;;;;;9.07;100.00;96990.63;5116506;27;20027;-73
2023/12/24 04:56:03;;;;;;;28.58;13.40;;;;;;;9.12;100.00;97001.84;5115778;27;20019;-73
2023/12/24 04:58:29;;;;;;;11.35;6.38;;;;;;;9.16;100.00;97006.03;5115947;27;20489;-74
2023/12/24 05:00:55;;;;;;;27.02;13.32;;;;;;;9.12;100.00;97017.84;5133805;27;20127;-74
2023/12/24 05:03:20;;;;;;;27.90;11.70;;;;;;;9.14;100.00;97017.75;5115940;27;20474;-73
2023/12/24 05:05:46;;;;;;;27.55;13.38;;;;;;;9.16;100.00;97024.72;5098721;27;20036;-74
2023/12/24 05:08:11;;;;;;;23.92;11.25;;;;;;;9.17;100.00;97026.41;5118427;27;20078;-73
2023/12/24 05:10:37;;;;;;;18.55;8.20;;;;;;;9.14;100.00;97020.41;5154912;27;20019;-74
2023/12/24 05:13:03;;;;;;;16.35;6.75;;;;;;;9.15;100.00;97025.66;5154958;27;20039;-73
2023/12/24 05:15:28;;;;;;;29.00;13.98;;;;;;;9.11;100.00;97021.47;5154713;27;20026;-74
2023/12/24 05:17:54;;;;;;;23.02;12.38;;;;;;;9.08;100.00;97019.00;5154654;27;20034;-74
2023/12/24 05:20:19;;;;;;;16.58;6.40;;;;;;;9.12;100.00;97003.66;5136028;27;20083;-74
2023/12/24 05:22:45;;;;;;;9.13;4.30;;;;;;;9.31;100.00;97004.19;5135959;27;20106;-74
2023/12/24 05:25:11;;;;;;;4.75;2.72;;;;;;;9.49;100.00;96991.44;5135715;27;20041;-74
2023/12/24 05:27:38;;;;;;;2.97;2.10;;;;;;;9.69;100.00;96985.63;5118942;27;20027;-74
2023/12/24 05:30:07;;;;;;;4.25;1.95;;;;;;;9.85;100.00;96982.75;5118588;27;20409;-73
2023/12/24 05:32:33;;;;;;;4.10;2.10;;;;;;;9.91;100.00;96991.19;5135748;27;20478;-73
2023/12/24 05:34:59;;;;;;;5.15;2.85;;;;;;;10.01;100.00;96973.59;5135714;27;20049;-74
2023/12/24 05:37:24;;;;;;;5.00;2.92;;;;;;;10.11;100.00;96985.34;5153929;27;20027;-74
2023/12/24 05:39:50;;;;;;;6.18;3.65;;;;;;;10.10;100.00;96982.78;5154201;27;20114;-74
2023/12/24 05:42:16;;;;;;;5.63;3.28;;;;;;;10.15;100.00;96980.69;5135828;27;20060;-73
2023/12/24 05:44:41;;;;;;;6.75;2.85;;;;;;;10.33;100.00;96988.28;5135381;27;20049;-74
2023/12/24 05:47:07;;;;;;;6.03;2.92;;;;;;;10.43;100.00;96993.00;5153937;27;20030;-74
2023/12/24 05:49:33;;;;;;;3.28;2.42;;;;;;;10.43;100.00;97001.00;5118197;27;20391;-74
2023/12/24 05:51:59;;;;;;;4.38;2.60;;;;;;;10.48;100.00;96998.84;5135344;27;20022;-75
2023/12/24 05:54:24;;;;;;;6.47;3.72;;;;;;;10.51;100.00;96999.50;5135695;27;20078;-74
2023/12/24 05:56:50;;;;;;;12.32;6.50;;;;;;;10.53;99.92;96986.88;5135256;27;20474;-74
2023/12/24 05:59:16;;;;;;;6.57;3.80;;;;;;;10.53;100.00;96996.69;5118002;27;20037;-74
2023/12/24 06:01:42;;;;;;;21.65;9.35;;;;;;;10.48;100.00;97014.91;5135026;27;20105;-74
2023/12/24 06:04:08;;;;;;;23.02;10.77;;;;;;;10.13;100.00;97026.22;5135342;27;20486;-74
2023/12/24 06:06:39;;;;;;;29.25;11.45;;;;;;;9.82;100.00;97030.06;5130794;27;20148;-74
2023/12/24 06:09:05;;;;;;;29.30;13.95;;;;;;;9.73;100.00;97038.72;5135227;27;20026;-74
2023/12/24 06:11:32;;;;;;;30.38;13.05;;;;;;;9.51;100.00;97042.88;5153568;27;20505;-74
2023/12/24 06:13:58;;;;;;;23.38;11.27;;;;;;;9.45;100.00;97049.50;5153210;27;20166;-73
2023/12/24 06:16:23;;;;;;;24.27;10.48;;;;;;;9.36;100.00;97051.91;5135123;27;20477;-75
2023/12/24 06:18:49;;;;;;;22.10;11.82;;;;;;;9.24;100.00;97059.75;5153245;27;20026;-73
2023/12/24 06:21:14;;;;;;;30.17;14.10;;;;;;;9.27;100.00;97066.69;5153577;27;20030;-73
2023/12/24 06:23:40;;;;;;;18.52;10.43;;;;;;;9.22;100.00;97072.34;5134675;27;20019;-73
2023/12/24 06:26:06;;;;;;;24.80;11.35;;;;;;;9.20;100.00;97068.91;5117440;27;20026;-73
2023/12/24 06:28:31;;;;;;;23.40;11.15;;;;;;;9.22;100.00;97074.16;5134351;27;20034;-73
2023/12/24 06:30:57;;;;;;;122.57;61.05;;;;;;;9.18;100.00;97093.97;5134551;27;20023;-73
2023/12/24 06:33:23;;;;;;;58.72;30.20;;;;;;;9.17;100.00;97085.09;5152449;27;20031;-73
2023/12/24 06:35:48;;;;;;;132.68;62.20;;;;;;;9.27;100.00;97088.91;5117042;27;20401;-74
2023/12/24 06:38:14;;;;;;;128.10;62.15;;;;;;;9.29;100.00;97096.81;5153142;27;20023;-74
2023/12/24 06:40:39;;;;;;;74.55;37.55;;;;;;;9.33;100.00;97097.47;5134386;27;20446;-75
2023/12/24 06:43:06;;;;;;;15.05;8.07;;;;;;;9.34;100.00;97099.19;5134369;27;20022;-75
2023/12/24 06:45:32;;;;;;;29.65;13.88;;;;;;;9.37;100.00;97104.34;5152863;27;20015;-73
2023/12/24 06:47:59;;;;;;;10.80;6.55;;;;;;;9.35;100.00;97108.94;5152662;27;20106;-74
2023/12/24 06:50:24;;;;;;;11.98;5.80;;;;;;;9.39;100.00;97118.44;5134588;27;20543;-74
2023/12/24 06:52:50;;;;;;;15.07;7.15;;;;;;;9.39;100.00;97123.75;5116901;27;20034;-74
2023/12/24 06:55:16;;;;;;;15.23;6.50;;;;;;;9.45;100.00;97123.38;5134416;27;20106;-74
2023/12/24 06:57:41;;;;;;;13.07;6.00;;;;;;;9.42;100.00;97126.22;5116779;27;20025;-74
2023/12/24 07:00:07;;;;;;;13.88;6.50;;;;;;;9.50;100.00;97132.81;5126250;27;20115;-74
2023/12/24 07:02:33;;;;;;;12.75;6.60;;;;;;;9.45;100.00;97128.72;5116931;27;20015;-73
2023/12/24 07:04:59;;;;;;;20.23;6.75;;;;;;;9.50;100.00;97137.28;5133902;27;20117;-73
2023/12/24 07:07:24;;;;;;;22.33;7.88;;;;;;;9.56;100.00;97127.09;5152431;27;20047;-74
2023/12/24 07:09:50;;;;;;;21.98;10.20;;;;;;;9.68;100.00;97141.44;5133851;27;20027;-72
2023/12/24 07:12:15;;;;;;;14.73;6.70;;;;;;;9.77;100.00;97120.34;5133553;27;20097;-74
2023/12/24 07:14:41;;;;;;;14.80;5.50;;;;;;;10.06;100.00;97121.06;5133928;27;20022;-73
2023/12/24 07:17:06;;;;;;;26.40;15.15;;;;;;;10.29;100.00;97109.75;5152107;27;20038;-74
2023/12/24 07:19:33;;;;;;;35.08;18.25;;;;;;;10.47;100.00;97104.09;5133599;27;20105;-74
2023/12/24 07:21:58;;;;;;;9.15;4.97;;;;;;;10.64;100.00;97112.66;5131023;27;20018;-73
2023/12/24 07:24:24;;;;;;;13.02;6.05;;;;;;;10.75;100.00;97111.91;5152194;27;20022;-74
2023/12/24 07:26:50;;;;;;;22.02;11.43;;;;;;;10.86;100.00;97102.16;5113736;27;20033;-73
2023/12/24 07:29:15;;;;;;;7.72;3.88;;;;;;;11.04;98.61;97109.88;5133445;27;20069;-73
2023/12/24 07:31:41;;;;;;;4.40;2.70;;;;;;;11.25;95.91;97116.38;5133587;27;20026;-73
2023/12/24 07:34:06;;;;;;;2.42;1.98;;;;;;;11.44;92.87;97101.53;5138859;27;20080;-74
2023/12/24 07:36:32;;;;;;;8.98;3.70;;;;;;;11.64;91.66;97113.50;5129741;27;20027;-74
2023/12/24 07:38:58;;;;;;;4.75;2.58;;;;;;;11.82;89.84;97122.91;5116575;27;20030;-72
2023/12/24 07:41:26;;;;;;;11.02;5.25;;;;;;;12.03;89.24;97123.13;5133498;27;20035;-73
2023/12/24 07:43:52;;;;;;;12.23;6.05;;;;;;;12.11;85.00;97104.66;5133940;27;20109;-73
2023/12/24 07:46:18;;;;;;;11.77;6.65;;;;;;;12.17;86.02;97114.06;5154698;27;20026;-72
2023/12/24 07:48:43;;;;;;;10.50;5.68;;;;;;;12.33;84.62;97109.25;5156414;27;20374;-74
2023/12/24 07:51:09;;;;;;;6.47;3.43;;;;;;;12.57;80.76;97096.66;5138795;27;20031;-73
2023/12/24 07:53:34;;;;;;;6.57;2.80;;;;;;;12.60;79.28;97103.59;5133919;27;20551;-73
2023/12/24 07:56:00;;;;;;;7.97;4.40;;;;;;;12.62;78.27;97109.69;5117410;27;20034;-72
2023/12/24 07:58:26;;;;;;;6.57;3.65;;;;;;;12.52;78.50;97104.16;5119528;27;20121;-72
2023/12/24 08:00:51;;;;;;;17.10;5.60;;;;;;;12.49;78.77;97099.91;5154191;27;20478;-74
2023/12/24 08:03:17;;;;;;;4.25;2.33;;;;;;;12.55;77.18;97108.47;5137518;27;20034;-73
2023/12/24 08:05:42;;;;;;;4.95;2.63;;;;;;;12.56;78.15;97105.66;5136945;27;20095;-73
2023/12/24 08:08:08;;;;;;;4.35;2.45;;;;;;;12.64;76.13;97107.75;5139727;27;20026;-73
2023/12/24 08:10:34;;;;;;;7.10;3.83;;;;;;;12.72;75.82;97105.31;5136764;27;20018;-73
2023/12/24 08:13:02;;;;;;;5.43;3.20;;;;;;;12.84;73.89;97102.53;5114768;27;20033;-73
2023/12/24 08:15:27;;;;;;;11.75;5.78;;;;;;;13.00;74.74;97094.16;5133477;27;20019;-75
2023/12/24 08:17:53;;;;;;;9.45;5.78;;;;;;;13.30;72.96;97104.31;5135685;27;20553;-73
2023/12/24 08:20:21;;;;;;;8.90;4.63;;;;;;;13.37;77.60;97103.72;5134903;27;20025;-80
2023/12/24 08:22:47;;;;;;;7.63;3.20;;;;;;;13.27;81.28;97101.88;5118558;27;20435;-72
2023/12/24 08:25:12;;;;;;;5.30;2.83;;;;;;;13.26;83.56;97105.56;5116398;27;20031;-71
2023/12/24 08:27:38;;;;;;;5.65;3.63;;;;;;;13.06;90.93;97120.50;5129359;27;20023;-71
2023/12/24 08:30:05;;;;;;;6.53;2.30;;;;;;;13.06;89.45;97117.81;5135697;27;20095;-72
2023/12/24 08:32:30;;;;;;;16.05;2.85;;;;;;;13.34;91.20;97125.44;5136731;27;20087;-71
2023/12/24 08:34:56;;;;;;;6.97;2.38;;;;;;;13.76;87.45;97117.56;5150154;27;20023;-71
2023/12/24 08:37:21;;;;;;;7.55;2.70;;;;;;;14.43;82.89;97100.25;5134819;27;20054;-71
2023/12/24 08:39:47;;;;;;;95.47;51.47;;;;;;;15.14;76.66;97094.06;5133127;27;20404;-72
2023/12/24 08:42:12;;;;;;;30.48;12.73;;;;;;;15.62;68.32;97101.56;5129105;27;20019;-72
2023/12/24 08:44:38;;;;;;;10.73;6.75;;;;;;;16.10;66.96;97101.66;5144316;27;20023;-72
2023/12/24 08:47:04;;;;;;;17.65;6.47;;;;;;;16.10;64.81;97098.94;5138951;27;20451;-72
2023/12/24 08:49:29;;;;;;;9.90;5.72;;;;;;;15.71;64.70;97106.13;5133102;27;20069;-71
2023/12/24 08:51:55;;;;;;;29.67;17.42;;;;;;;15.50;67.90;97108.03;5133483;27;20042;-71
2023/12/24 08:54:23;;;;;;;12.98;6.97;;;;;;;15.19;63.17;97096.38;5132939;27;20382;-71
2023/12/24 08:56:49;;;;;;;4.10;2.22;;;;;;;14.81;61.12;97075.47;5131817;27;20034;-71
2023/12/24 08:59:15;;;;;;;2.00;1.63;;;;;;;15.62;58.98;97053.88;5148547;27;20034;-72
2023/12/24 09:01:41;;;;;;;4.40;2.35;;;;;;;17.59;52.32;97032.47;5104229;27;20027;-72
2023/12/24 09:04:07;;;;;;;5.20;3.75;;;;;;;17.49;51.70;97050.56;5132832;27;20501;-72
2023/12/24 09:06:32;;;;;;;4.38;2.63;;;;;;;16.86;51.30;97045.97;5132658;27;20095;-71
2023/12/24 09:08:58;;;;;;;4.32;2.90;;;;;;;15.78;53.99;97041.69;5115475;27;20031;-71
2023/12/24 09:11:23;;;;;;;4.88;3.17;;;;;;;15.76;55.05;97055.31;5132635;27;20379;-72
2023/12/24 09:13:49;;;;;;;3.95;2.13;;;;;;;17.24;51.81;97035.88;5145132;27;20026;-72
2023/12/24 09:16:15;;;;;;;5.18;2.20;;;;;;;19.53;47.56;97014.28;5140591;27;20478;-72
2023/12/24 09:18:40;;;;;;;2.83;1.95;;;;;;;19.95;44.25;97010.50;5148754;27;20110;-72
2023/12/24 09:21:06;;;;;;;6.88;3.20;;;;;;;18.37;46.33;97025.47;5132992;27;20054;-72
2023/12/24 09:23:31;;;;;;;3.55;1.50;;;;;;;17.30;48.13;97043.38;5133033;27;20015;-71
2023/12/24 09:25:57;;;;;;;3.15;2.30;;;;;;;16.65;49.84;97054.22;5151122;27;20023;-72
2023/12/24 09:28:22;;;;;;;2.70;1.40;;;;;;;15.76;51.15;97062.53;5145532;27;20027;-72
2023/12/24 09:30:48;;;;;;;7.72;2.67;;;;;;;15.19;53.47;97067.59;5135869;27;20050;-72
2023/12/24 09:33:14;;;;;;;3.67;2.30;;;;;;;14.63;54.96;97056.38;5134357;27;20023;-72
2023/12/24 09:35:42;;;;;;;6.45;3.75;;;;;;;14.55;57.26;97058.84;5132296;27;20126;-71
2023/12/24 09:38:08;;;;;;;4.63;2.03;;;;;;;14.42;56.64;97055.53;5132868;27;20034;-73
2023/12/24 09:40:33;;;;;;;3.65;2.13;;;;;;;14.33;57.46;97055.44;5132441;27;20027;-80
2023/12/24 09:43:00;;;;;;;10.35;4.35;;;;;;;14.23;58.21;97063.41;5136564;27;20544;-79
2023/12/24 09:45:25;;;;;;;9.25;4.57;;;;;;;14.17;58.67;97058.53;5118815;27;20072;-76
2023/12/24 09:47:51;;;;;;;6.45;2.50;;;;;;;14.37;58.17;97060.41;5116151;27;20444;-74
2023/12/24 09:50:16;;;;;;;6.47;3.45;;;;;;;14.68;57.71;97049.72;5132332;27;20030;-77
2023/12/24 09:52:46;;;;;;;10.38;4.75;;;;;;;14.68;56.91;97044.34;5133256;27;20027;-78
2023/12/24 09:55:12;;;;;;;10.13;4.25;;;;;;;14.98;56.70;97029.06;5108066;27;20034;-77
2023/12/24 09:57:38;;;;;;;8.30;4.45;;;;;;;15.65;55.82;97037.41;5135824;27;20076;-75
2023/12/24 10:00:08;;;;;;;10.55;5.07;;;;;;;16.34;53.05;97009.47;5149627;27;20038;-72
2023/12/24 10:02:33;;;;;;;5.45;3.33;;;;;;;17.32;50.23;96994.53;5146227;27;20026;-72
2023/12/24 10:05:00;;;;;;;5.32;2.97;;;;;;;17.45;48.41;96991.50;5148250;27;20031;-72
2023/12/24 10:07:37;;;;;;;6.18;3.30;;;;;;;16.91;49.21;96995.03;5134683;27;20043;-71
2023/12/24 10:10:03;;;;;;;8.40;3.28;;;;;;;16.78;49.74;96984.53;5135071;27;20026;-72
2023/12/24 10:12:28;;;;;;;6.25;2.53;;;;;;;16.94;48.70;96986.63;5131588;27;20089;-77
2023/12/24 10:14:58;;;;;;;4.28;2.60;;;;;;;16.96;48.42;96988.19;5129301;27;20027;-76
2023/12/24 10:17:27;;;;;;;5.70;3.40;;;;;;;17.03;48.99;96988.44;5116839;27;20042;-76
2023/12/24 10:19:53;;;;;;;6.35;3.85;;;;;;;17.42;48.46;96989.94;5142679;27;20113;-76
2023/12/24 10:22:23;;;;;;;8.60;4.50;;;;;;;17.34;48.52;96993.41;5111112;27;20129;-77
2023/12/24 10:24:49;;;;;;;6.55;3.30;;;;;;;17.34;48.17;97009.66;5117868;27;20530;-77
2023/12/24 10:27:15;;;;;;;5.90;3.30;;;;;;;17.62;48.31;96999.69;5135036;27;20035;-77
2023/12/24 10:29:42;;;;;;;7.07;3.58;;;;;;;18.30;47.45;97002.75;5117408;27;20098;-77
2023/12/24 10:32:10;;;;;;;4.30;2.42;;;;;;;18.23;46.20;96990.84;5105650;27;20409;-78
2023/12/24 10:34:37;;;;;;;3.58;1.98;;;;;;;18.57;45.36;96989.13;5115577;27;20026;-78
2023/12/24 10:37:19;;;;;;;3.15;2.25;;;;;;;18.46;45.85;96988.50;5132490;27;20458;-79
2023/12/24 10:39:45;;;;;;;6.90;3.30;;;;;;;18.02;45.73;96999.28;5130202;27;20026;-78
2023/12/24 10:42:11;;;;;;;5.53;3.20;;;;;;;18.04;46.49;97001.81;5113863;27;20035;-77
2023/12/24 10:44:36;;;;;;;5.35;3.00;;;;;;;18.14;46.46;96986.34;5132812;27;20027;-78
2023/12/24 10:47:03;;;;;;;2.72;1.98;;;;;;;17.77;46.72;96986.50;5130488;27;20486;-78
2023/12/24 10:49:29;;;;;;;5.05;2.10;;;;;;;17.54;48.33;96994.16;5121874;27;20101;-78
2023/12/24 10:51:56;;;;;;;3.92;2.30;;;;;;;17.22;47.32;96977.53;5134327;27;20031;-78
2023/12/24 10:54:22;;;;;;;3.05;2.00;;;;;;;17.18;48.04;96973.44;5134128;27;20023;-77
2023/12/24 10:57:01;;;;;;;3.38;2.13;;;;;;;17.11;48.44;96975.03;5115569;27;20033;-76
2023/12/24 10:59:52;;;;;;;3.92;2.50;;;;;;;17.60;48.51;96961.13;5115235;27;20401;-79
2023/12/24 11:02:17;;;;;;;14.95;7.93;;;;;;;17.57;50.05;96963.28;5132622;27;20029;-77
2023/12/24 11:04:44;;;;;;;56.75;31.48;;;;;;;17.40;49.90;96966.78;5133417;27;20494;-78
2023/12/24 11:07:45;;;;;;;10.98;3.83;;;;;;;17.44;49.53;96963.63;5129322;27;20050;-76
2023/12/24 11:10:41;;;;;;;11.50;5.97;;;;;;;17.35;48.82;96967.22;5117512;27;20533;-77
2023/12/24 11:13:33;;;;;;;8.55;5.13;;;;;;;17.16;nan;96978.16;5120112;27;20401;-77
2023/12/24 11:16:04;;;;;;;4.32;2.40;;;;;;;16.55;49.67;96975.94;5108458;27;20100;-79
2023/12/24 11:18:58;;;;;;;6.35;3.85;;;;;;;16.25;50.52;96970.69;5099893;27;20054;-78
2023/12/24 11:21:24;;;;;;;6.28;2.13;;;;;;;15.97;51.27;96963.47;5105093;27;20038;-77
2023/12/24 11:24:14;;;;;;;20.30;3.00;;;;;;;16.57;50.96;96952.34;5097031;28;20027;-79
2023/12/24 11:26:53;;;;;;;3.60;2.10;;;;;;;18.56;48.24;96946.78;5083490;28;20501;-78